PWSweather.com
Personal Weather Stations
Station Observations
DELHOVEN
DormagenDE 41540

DormagenDE 41540

Lat: 51.083, Lon: 6.775

Elevation: 120

Station Type: WH1080

Latest ConditionsUpdated 1:55:17 AM GMT+01:01 Sunday, Mar 29, 2015
Currently Today's Max Today's Min Today's Average
Temperature 54.0°F12.2°C 54.1°F12.3°C 53.1°F11.7°C 53.6°F12.0°C
Dew Point 49.6°F9.8°C 51.4°F10.8°C 49.6°F9.8°C 50.9°F10.5°C
Winds 10.7 mph SE17.2 kmh SE 14.5 mph SW23.3 kmh SW - 8.0 mph 12.9 kmh
Wind Gusts 15.9 mph25.6 kmh 23.5 mph37.8 kmh - -
Humidity 85% 93% 85% 91%
Pressure 29.79 in1008.8 mb 29.82 in1009.8 mb 29.77 in1008.1 mb -
Hour Temp Dew Point Humidity Winds Wind Gusts Pressure Precip Precip Rate Daily Precip Total
01:55 AM 54.0°F12.2°C 49.6°F9.8°C 85% 10.7 mph SE17.2 kmh SE 15.9 mph25.6 kmh 29.79 in1008.8 mb 0.00 in0.0 mm 0.00 in0.0 mm 0.04 in1.0 mm
01:50 AM 54.0°F12.2°C 49.6°F9.8°C 85% 6.0 mph SW9.7 kmh SW 11.4 mph18.3 kmh 29.78 in1008.5 mb 0.00 in0.0 mm 0.00 in0.0 mm 0.04 in1.0 mm
01:45 AM 54.0°F12.2°C 49.9°F9.9°C 86% 8.3 mph NW13.4 kmh NW 15.2 mph24.5 kmh 29.77 in1008.1 mb 0.00 in0.0 mm 0.00 in0.0 mm 0.04 in1.0 mm
01:40 AM 54.1°F12.3°C 50.4°F10.2°C 87% 8.3 mph NW13.4 kmh NW 12.1 mph19.5 kmh 29.78 in1008.5 mb 0.00 in0.0 mm 0.00 in0.0 mm 0.04 in1.0 mm
01:35 AM 54.1°F12.3°C 50.4°F10.2°C 87% 7.6 mph SW12.2 kmh SW 13.0 mph20.9 kmh 29.78 in1008.5 mb 0.00 in0.0 mm 0.00 in0.0 mm 0.04 in1.0 mm
01:30 AM 54.1°F12.3°C 50.7°F10.4°C 88% 6.0 mph W9.7 kmh W 9.2 mph14.8 kmh 29.78 in1008.5 mb 0.00 in0.0 mm 0.00 in0.0 mm 0.04 in1.0 mm
01:25 AM 54.0°F12.2°C 50.8°F10.4°C 89% 12.1 mph NW19.5 kmh NW 15.9 mph25.6 kmh 29.78 in1008.5 mb 0.00 in0.0 mm 0.00 in0.0 mm 0.04 in1.0 mm
01:20 AM 54.0°F12.2°C 51.1°F10.6°C 90% 7.6 mph NW12.2 kmh NW 13.6 mph21.9 kmh 29.78 in1008.5 mb 0.00 in0.0 mm 0.00 in0.0 mm 0.04 in1.0 mm
01:15 AM 53.8°F12.1°C 51.2°F10.7°C 91% 6.9 mph W11.1 kmh W 11.4 mph18.3 kmh 29.78 in1008.5 mb 0.00 in0.0 mm 0.00 in0.0 mm 0.04 in1.0 mm
01:10 AM 53.8°F12.1°C 51.2°F10.7°C 91% 8.3 mph S13.4 kmh S 13.6 mph21.9 kmh 29.78 in1008.5 mb 0.00 in0.0 mm 0.00 in0.0 mm 0.04 in1.0 mm
01:05 AM 53.6°F12.0°C 51.0°F10.6°C 91% 14.5 mph SW23.3 kmh SW 23.5 mph37.8 kmh 29.78 in1008.5 mb 0.00 in0.0 mm 0.00 in0.0 mm 0.04 in1.0 mm
01:00 AM 53.6°F12.0°C 51.3°F10.7°C 92% 9.2 mph NW14.8 kmh NW 16.8 mph27.0 kmh 29.78 in1008.5 mb 0.00 in0.0 mm 0.00 in0.0 mm 0.04 in1.0 mm
12:55 AM 53.6°F12.0°C 51.3°F10.7°C 92% 9.8 mph S15.8 kmh S 15.9 mph25.6 kmh 29.78 in1008.5 mb 0.00 in0.0 mm 0.00 in0.0 mm 0.04 in1.0 mm
12:50 AM 53.6°F12.0°C 51.3°F10.7°C 92% 8.3 mph S13.4 kmh S 13.0 mph20.9 kmh 29.79 in1008.8 mb 0.00 in0.0 mm 0.00 in0.0 mm 0.04 in1.0 mm
12:45 AM 53.6°F12.0°C 51.3°F10.7°C 92% 6.9 mph SE11.1 kmh SE 10.7 mph17.2 kmh 29.79 in1008.8 mb 0.00 in0.0 mm 0.00 in0.0 mm 0.04 in1.0 mm
12:40 AM 53.6°F12.0°C 51.3°F10.7°C 92% 5.4 mph SW8.7 kmh SW 7.6 mph12.2 kmh 29.79 in1008.8 mb 0.00 in0.0 mm 0.00 in0.0 mm 0.04 in1.0 mm
12:35 AM 53.4°F11.9°C 51.4°F10.8°C 93% 7.6 mph W12.2 kmh W 13.0 mph20.9 kmh 29.80 in1009.1 mb 0.00 in0.0 mm 0.00 in0.0 mm 0.04 in1.0 mm
12:30 AM 53.2°F11.8°C 51.3°F10.7°C 93% 7.6 mph NW12.2 kmh NW 12.1 mph19.5 kmh 29.79 in1008.8 mb 0.01 in0.3 mm 0.00 in0.0 mm 0.04 in1.0 mm
12:25 AM 53.2°F11.8°C 51.3°F10.7°C 93% 6.9 mph E11.1 kmh E 10.7 mph17.2 kmh 29.80 in1009.1 mb 0.03 in0.8 mm 0.00 in0.0 mm 0.04 in1.0 mm
12:20 AM 53.2°F11.8°C 51.3°F10.7°C 93% 6.9 mph NW11.1 kmh NW 11.4 mph18.3 kmh 29.80 in1009.1 mb 0.04 in1.0 mm 0.00 in0.0 mm 0.04 in1.0 mm
12:15 AM 53.1°F11.7°C 51.1°F10.6°C 93% 6.0 mph SW9.7 kmh SW 12.1 mph19.5 kmh 29.80 in1009.1 mb 0.04 in1.0 mm 0.00 in0.0 mm 0.04 in1.0 mm
12:10 AM 53.1°F11.7°C 51.1°F10.6°C 93% 6.9 mph NW11.1 kmh NW 12.1 mph19.5 kmh 29.80 in1009.1 mb 0.04 in1.0 mm 0.00 in0.0 mm 0.04 in1.0 mm
12:05 AM 53.1°F11.7°C 51.1°F10.6°C 93% 6.9 mph S11.1 kmh S 12.1 mph19.5 kmh 29.81 in1009.5 mb 0.04 in1.0 mm 0.00 in0.0 mm 0.04 in1.0 mm
12:00 AM 53.1°F11.7°C 51.1°F10.6°C 93% 6.9 mph S11.1 kmh S 12.1 mph19.5 kmh 29.82 in1009.8 mb 0.04 in1.0 mm 0.00 in0.0 mm 0.29 in7.4 mm